sensor_id;sensor_type;location;lat;lon;timestamp;temperature;humidity
44170;DHT22;29836;52.286;9.576;2023-07-20T00:01:54;14.50;99.90
44170;DHT22;29836;52.286;9.576;2023-07-20T00:04:20;14.50;99.90
44170;DHT22;29836;52.286;9.576;2023-07-20T00:06:46;14.50;99.90
44170;DHT22;29836;52.286;9.576;2023-07-20T00:09:11;14.40;99.90
44170;DHT22;29836;52.286;9.576;2023-07-20T00:11:38;14.40;99.90
44170;DHT22;29836;52.286;9.576;2023-07-20T00:14:05;14.40;99.90
44170;DHT22;29836;52.286;9.576;2023-07-20T00:16:30;14.40;99.90
44170;DHT22;29836;52.286;9.576;2023-07-20T00:18:56;14.40;99.90
44170;DHT22;29836;52.286;9.576;2023-07-20T00:21:21;14.40;99.90
44170;DHT22;29836;52.286;9.576;2023-07-20T00:23:47;14.30;99.90
44170;DHT22;29836;52.286;9.576;2023-07-20T00:26:12;14.30;99.90
44170;DHT22;29836;52.286;9.576;2023-07-20T00:28:38;14.30;99.90
44170;DHT22;29836;52.286;9.576;2023-07-20T00:31:04;14.30;99.90
44170;DHT22;29836;52.286;9.576;2023-07-20T00:33:29;14.30;99.90
44170;DHT22;29836;52.286;9.576;2023-07-20T00:35:55;14.20;99.90
44170;DHT22;29836;52.286;9.576;2023-07-20T00:38:21;14.20;99.90
44170;DHT22;29836;52.286;9.576;2023-07-20T00:40:46;14.20;99.90
44170;DHT22;29836;52.286;9.576;2023-07-20T00:43:12;14.20;99.90
44170;DHT22;29836;52.286;9.576;2023-07-20T00:45:38;14.20;99.90
44170;DHT22;29836;52.286;9.576;2023-07-20T00:48:05;14.10;99.90
44170;DHT22;29836;52.286;9.576;2023-07-20T00:50:32;14.10;99.90
44170;DHT22;29836;52.286;9.576;2023-07-20T00:52:58;14.10;99.90
44170;DHT22;29836;52.286;9.576;2023-07-20T00:55:25;14.00;99.90
44170;DHT22;29836;52.286;9.576;2023-07-20T00:57:52;14.00;99.90
44170;DHT22;29836;52.286;9.576;2023-07-20T01:00:18;14.00;99.90
44170;DHT22;29836;52.286;9.576;2023-07-20T01:02:44;14.00;99.90
44170;DHT22;29836;52.286;9.576;2023-07-20T01:05:10;13.90;99.90
44170;DHT22;29836;52.286;9.576;2023-07-20T01:07:58;13.90;99.90
44170;DHT22;29836;52.286;9.576;2023-07-20T01:10:33;13.90;99.90
44170;DHT22;29836;52.286;9.576;2023-07-20T01:13:01;13.90;99.90
44170;DHT22;29836;52.286;9.576;2023-07-20T01:15:27;13.90;99.90
44170;DHT22;29836;52.286;9.576;2023-07-20T01:17:53;13.90;99.90
44170;DHT22;29836;52.286;9.576;2023-07-20T01:20:20;13.90;99.90
44170;DHT22;29836;52.286;9.576;2023-07-20T01:29:22;13.80;99.90
44170;DHT22;29836;52.286;9.576;2023-07-20T01:31:57;13.70;99.90
44170;DHT22;29836;52.286;9.576;2023-07-20T01:34:23;13.70;99.90
44170;DHT22;29836;52.286;9.576;2023-07-20T01:36:50;13.70;99.90
44170;DHT22;29836;52.286;9.576;2023-07-20T01:39:19;13.70;99.90
44170;DHT22;29836;52.286;9.576;2023-07-20T01:41:45;13.70;99.90
44170;DHT22;29836;52.286;9.576;2023-07-20T01:44:12;13.70;99.90
44170;DHT22;29836;52.286;9.576;2023-07-20T01:46:37;13.60;99.90
44170;DHT22;29836;52.286;9.576;2023-07-20T01:49:03;13.60;99.90
44170;DHT22;29836;52.286;9.576;2023-07-20T01:51:29;13.70;99.90
44170;DHT22;29836;52.286;9.576;2023-07-20T01:53:54;13.60;99.90
44170;DHT22;29836;52.286;9.576;2023-07-20T01:56:20;13.70;99.90
44170;DHT22;29836;52.286;9.576;2023-07-20T01:58:45;13.70;99.90
44170;DHT22;29836;52.286;9.576;2023-07-20T02:01:11;13.70;99.90
44170;DHT22;29836;52.286;9.576;2023-07-20T02:03:37;13.60;99.90
44170;DHT22;29836;52.286;9.576;2023-07-20T02:06:02;13.60;99.90
44170;DHT22;29836;52.286;9.576;2023-07-20T02:08:28;13.60;99.90
44170;DHT22;29836;52.286;9.576;2023-07-20T02:10:53;13.60;99.90
44170;DHT22;29836;52.286;9.576;2023-07-20T02:13:19;13.50;99.90
44170;DHT22;29836;52.286;9.576;2023-07-20T02:15:44;13.50;99.90
44170;DHT22;29836;52.286;9.576;2023-07-20T02:18:12;13.50;99.90
44170;DHT22;29836;52.286;9.576;2023-07-20T02:20:38;13.50;99.90
44170;DHT22;29836;52.286;9.576;2023-07-20T02:23:05;13.50;99.90
44170;DHT22;29836;52.286;9.576;2023-07-20T02:25:31;13.50;99.90
44170;DHT22;29836;52.286;9.576;2023-07-20T02:27:57;13.40;99.90
44170;DHT22;29836;52.286;9.576;2023-07-20T02:30:23;13.40;99.90
44170;DHT22;29836;52.286;9.576;2023-07-20T02:32:48;13.40;99.90
44170;DHT22;29836;52.286;9.576;2023-07-20T02:35:17;13.40;99.90
44170;DHT22;29836;52.286;9.576;2023-07-20T02:37:42;13.40;99.90
44170;DHT22;29836;52.286;9.576;2023-07-20T02:40:08;13.50;99.90
44170;DHT22;29836;52.286;9.576;2023-07-20T02:42:35;13.50;99.90
44170;DHT22;29836;52.286;9.576;2023-07-20T02:45:02;13.50;99.90
44170;DHT22;29836;52.286;9.576;2023-07-20T02:47:29;13.50;99.90
44170;DHT22;29836;52.286;9.576;2023-07-20T02:49:54;13.40;99.90
44170;DHT22;29836;52.286;9.576;2023-07-20T02:52:20;13.40;99.90
44170;DHT22;29836;52.286;9.576;2023-07-20T02:54:45;13.40;99.90
44170;DHT22;29836;52.286;9.576;2023-07-20T02:57:11;13.40;99.90
44170;DHT22;29836;52.286;9.576;2023-07-20T02:59:36;13.40;99.90
44170;DHT22;29836;52.286;9.576;2023-07-20T03:02:02;13.30;99.90
44170;DHT22;29836;52.286;9.576;2023-07-20T03:04:27;13.30;99.90
44170;DHT22;29836;52.286;9.576;2023-07-20T03:06:53;13.30;99.90
44170;DHT22;29836;52.286;9.576;2023-07-20T03:09:19;13.40;99.90
44170;DHT22;29836;52.286;9.576;2023-07-20T03:11:44;13.40;99.90
44170;DHT22;29836;52.286;9.576;2023-07-20T03:14:10;13.50;99.90
44170;DHT22;29836;52.286;9.576;2023-07-20T03:16:36;13.50;99.90
44170;DHT22;29836;52.286;9.576;2023-07-20T03:19:02;13.60;99.90
44170;DHT22;29836;52.286;9.576;2023-07-20T03:21:28;13.60;99.90
44170;DHT22;29836;52.286;9.576;2023-07-20T03:23:54;13.70;99.90
44170;DHT22;29836;52.286;9.576;2023-07-20T03:26:19;13.70;99.90
44170;DHT22;29836;52.286;9.576;2023-07-20T03:28:45;13.70;99.90
44170;DHT22;29836;52.286;9.576;2023-07-20T03:31:10;13.80;99.90
44170;DHT22;29836;52.286;9.576;2023-07-20T03:33:36;13.80;99.90
44170;DHT22;29836;52.286;9.576;2023-07-20T03:36:02;13.80;99.90
44170;DHT22;29836;52.286;9.576;2023-07-20T03:38:27;13.80;99.90
44170;DHT22;29836;52.286;9.576;2023-07-20T03:40:53;13.90;99.90
44170;DHT22;29836;52.286;9.576;2023-07-20T03:43:20;13.80;99.90
44170;DHT22;29836;52.286;9.576;2023-07-20T03:45:46;13.80;99.90
44170;DHT22;29836;52.286;9.576;2023-07-20T03:48:13;13.80;99.90
44170;DHT22;29836;52.286;9.576;2023-07-20T03:50:39;13.90;99.90
44170;DHT22;29836;52.286;9.576;2023-07-20T03:53:04;13.90;99.90
44170;DHT22;29836;52.286;9.576;2023-07-20T03:55:30;13.90;99.90
44170;DHT22;29836;52.286;9.576;2023-07-20T03:57:56;13.90;99.90
44170;DHT22;29836;52.286;9.576;2023-07-20T04:00:21;14.00;99.90
44170;DHT22;29836;52.286;9.576;2023-07-20T04:02:47;14.00;99.90
44170;DHT22;29836;52.286;9.576;2023-07-20T04:05:12;14.00;99.90
44170;DHT22;29836;52.286;9.576;2023-07-20T04:07:38;14.10;99.90
44170;DHT22;29836;52.286;9.576;2023-07-20T04:10:04;14.00;99.90
44170;DHT22;29836;52.286;9.576;2023-07-20T04:12:29;14.10;99.90
44170;DHT22;29836;52.286;9.576;2023-07-20T04:14:55;14.00;99.90
44170;DHT22;29836;52.286;9.576;2023-07-20T04:17:21;14.00;99.90
44170;DHT22;29836;52.286;9.576;2023-07-20T04:19:46;14.00;99.90
44170;DHT22;29836;52.286;9.576;2023-07-20T04:22:12;13.90;99.90
44170;DHT22;29836;52.286;9.576;2023-07-20T04:24:37;13.90;99.90
44170;DHT22;29836;52.286;9.576;2023-07-20T04:27:03;13.80;99.90
44170;DHT22;29836;52.286;9.576;2023-07-20T04:29:28;13.80;99.90
44170;DHT22;29836;52.286;9.576;2023-07-20T04:31:54;13.70;99.90
44170;DHT22;29836;52.286;9.576;2023-07-20T04:34:19;13.70;99.90
44170;DHT22;29836;52.286;9.576;2023-07-20T04:36:45;13.70;99.90
44170;DHT22;29836;52.286;9.576;2023-07-20T04:39:12;13.60;99.90
44170;DHT22;29836;52.286;9.576;2023-07-20T04:41:37;13.60;99.90
44170;DHT22;29836;52.286;9.576;2023-07-20T04:44:03;13.60;99.90
44170;DHT22;29836;52.286;9.576;2023-07-20T04:46:28;13.50;99.90
44170;DHT22;29836;52.286;9.576;2023-07-20T04:48:54;13.50;99.90
44170;DHT22;29836;52.286;9.576;2023-07-20T04:51:19;13.40;99.90
44170;DHT22;29836;52.286;9.576;2023-07-20T04:53:47;13.40;99.90
44170;DHT22;29836;52.286;9.576;2023-07-20T04:56:13;13.40;99.90
44170;DHT22;29836;52.286;9.576;2023-07-20T04:58:39;13.40;99.90
44170;DHT22;29836;52.286;9.576;2023-07-20T05:01:04;13.40;99.90
44170;DHT22;29836;52.286;9.576;2023-07-20T05:03:30;13.40;99.90
44170;DHT22;29836;52.286;9.576;2023-07-20T05:05:57;13.40;99.90
44170;DHT22;29836;52.286;9.576;2023-07-20T05:08:23;13.50;99.90
44170;DHT22;29836;52.286;9.576;2023-07-20T05:10:48;13.50;99.90
44170;DHT22;29836;52.286;9.576;2023-07-20T05:13:14;13.60;99.90
44170;DHT22;29836;52.286;9.576;2023-07-20T05:15:40;13.60;99.90
44170;DHT22;29836;52.286;9.576;2023-07-20T05:18:05;13.60;99.90
44170;DHT22;29836;52.286;9.576;2023-07-20T05:20:31;13.60;99.90
44170;DHT22;29836;52.286;9.576;2023-07-20T05:22:58;13.60;99.90
44170;DHT22;29836;52.286;9.576;2023-07-20T05:25:24;13.60;99.90
44170;DHT22;29836;52.286;9.576;2023-07-20T05:27:50;13.70;99.90
44170;DHT22;29836;52.286;9.576;2023-07-20T05:30:16;13.60;99.90
44170;DHT22;29836;52.286;9.576;2023-07-20T05:32:41;13.60;99.90
44170;DHT22;29836;52.286;9.576;2023-07-20T05:35:07;13.60;99.90
44170;DHT22;29836;52.286;9.576;2023-07-20T05:37:34;13.60;99.90
44170;DHT22;29836;52.286;9.576;2023-07-20T05:39:59;13.60;99.90
44170;DHT22;29836;52.286;9.576;2023-07-20T05:42:25;13.60;99.90
44170;DHT22;29836;52.286;9.576;2023-07-20T05:44:51;13.60;99.90
44170;DHT22;29836;52.286;9.576;2023-07-20T05:47:18;13.60;99.90
44170;DHT22;29836;52.286;9.576;2023-07-20T05:49:44;13.60;99.90
44170;DHT22;29836;52.286;9.576;2023-07-20T05:52:09;13.60;99.90
44170;DHT22;29836;52.286;9.576;2023-07-20T05:54:35;13.60;99.90
44170;DHT22;29836;52.286;9.576;2023-07-20T05:57:00;13.70;99.90
44170;DHT22;29836;52.286;9.576;2023-07-20T05:59:27;13.70;99.90
44170;DHT22;29836;52.286;9.576;2023-07-20T06:01:54;13.80;99.90
44170;DHT22;29836;52.286;9.576;2023-07-20T06:04:20;13.90;99.90
44170;DHT22;29836;52.286;9.576;2023-07-20T06:06:46;14.00;99.90
44170;DHT22;29836;52.286;9.576;2023-07-20T06:09:12;14.00;99.90
44170;DHT22;29836;52.286;9.576;2023-07-20T06:11:38;14.00;99.90
44170;DHT22;29836;52.286;9.576;2023-07-20T06:14:04;14.10;99.90
44170;DHT22;29836;52.286;9.576;2023-07-20T06:16:30;14.10;99.90
44170;DHT22;29836;52.286;9.576;2023-07-20T06:18:55;14.20;99.90
44170;DHT22;29836;52.286;9.576;2023-07-20T06:21:21;14.30;99.90
44170;DHT22;29836;52.286;9.576;2023-07-20T06:23:47;14.30;99.90
44170;DHT22;29836;52.286;9.576;2023-07-20T06:26:13;14.30;99.90
44170;DHT22;29836;52.286;9.576;2023-07-20T06:28:38;14.30;99.90
44170;DHT22;29836;52.286;9.576;2023-07-20T06:31:10;14.40;99.90
44170;DHT22;29836;52.286;9.576;2023-07-20T06:33:37;14.40;99.90
44170;DHT22;29836;52.286;9.576;2023-07-20T06:36:03;14.50;99.90
44170;DHT22;29836;52.286;9.576;2023-07-20T06:38:29;14.40;99.90
44170;DHT22;29836;52.286;9.576;2023-07-20T06:40:55;14.40;99.90
44170;DHT22;29836;52.286;9.576;2023-07-20T06:43:21;14.40;99.90
44170;DHT22;29836;52.286;9.576;2023-07-20T06:45:54;14.40;99.90
44170;DHT22;29836;52.286;9.576;2023-07-20T06:48:20;14.60;99.90
44170;DHT22;29836;52.286;9.576;2023-07-20T06:50:46;14.80;99.90
44170;DHT22;29836;52.286;9.576;2023-07-20T06:53:12;14.90;99.90
44170;DHT22;29836;52.286;9.576;2023-07-20T06:55:41;14.90;99.90
44170;DHT22;29836;52.286;9.576;2023-07-20T06:58:07;14.90;99.90
44170;DHT22;29836;52.286;9.576;2023-07-20T07:00:32;15.10;99.90
44170;DHT22;29836;52.286;9.576;2023-07-20T07:02:58;15.30;99.90
44170;DHT22;29836;52.286;9.576;2023-07-20T07:05:29;15.40;99.90
44170;DHT22;29836;52.286;9.576;2023-07-20T07:07:55;15.50;99.90
44170;DHT22;29836;52.286;9.576;2023-07-20T07:10:20;15.80;99.90
44170;DHT22;29836;52.286;9.576;2023-07-20T07:12:46;15.90;99.90
44170;DHT22;29836;52.286;9.576;2023-07-20T07:15:11;16.00;99.90
44170;DHT22;29836;52.286;9.576;2023-07-20T07:17:37;15.90;99.90
44170;DHT22;29836;52.286;9.576;2023-07-20T07:20:04;15.70;99.90
44170;DHT22;29836;52.286;9.576;2023-07-20T07:22:30;15.50;99.90
44170;DHT22;29836;52.286;9.576;2023-07-20T07:24:56;15.40;99.90
44170;DHT22;29836;52.286;9.576;2023-07-20T07:27:21;15.40;99.90
44170;DHT22;29836;52.286;9.576;2023-07-20T07:29:47;15.40;99.90
44170;DHT22;29836;52.286;9.576;2023-07-20T07:32:15;15.40;99.90
44170;DHT22;29836;52.286;9.576;2023-07-20T07:34:40;15.50;99.90
44170;DHT22;29836;52.286;9.576;2023-07-20T07:37:06;15.60;99.90
44170;DHT22;29836;52.286;9.576;2023-07-20T07:39:35;15.70;99.90
44170;DHT22;29836;52.286;9.576;2023-07-20T07:42:01;15.80;99.90
44170;DHT22;29836;52.286;9.576;2023-07-20T07:44:26;15.90;99.90
44170;DHT22;29836;52.286;9.576;2023-07-20T07:46:52;16.00;99.90
44170;DHT22;29836;52.286;9.576;2023-07-20T07:49:18;16.10;99.90
44170;DHT22;29836;52.286;9.576;2023-07-20T07:51:44;16.30;99.90
44170;DHT22;29836;52.286;9.576;2023-07-20T07:54:10;16.50;99.90
44170;DHT22;29836;52.286;9.576;2023-07-20T07:56:36;16.50;99.90
44170;DHT22;29836;52.286;9.576;2023-07-20T07:59:01;16.60;99.90
44170;DHT22;29836;52.286;9.576;2023-07-20T08:01:28;16.70;99.90
44170;DHT22;29836;52.286;9.576;2023-07-20T08:03:53;16.60;99.90
44170;DHT22;29836;52.286;9.576;2023-07-20T08:06:19;16.80;99.90
44170;DHT22;29836;52.286;9.576;2023-07-20T08:08:44;16.90;99.90
44170;DHT22;29836;52.286;9.576;2023-07-20T08:11:10;17.00;99.90
44170;DHT22;29836;52.286;9.576;2023-07-20T08:13:36;16.80;99.90
44170;DHT22;29836;52.286;9.576;2023-07-20T08:16:02;16.70;99.90
44170;DHT22;29836;52.286;9.576;2023-07-20T08:18:28;16.90;99.90
44170;DHT22;29836;52.286;9.576;2023-07-20T08:20:53;17.10;99.90
44170;DHT22;29836;52.286;9.576;2023-07-20T08:23:19;17.30;99.90
44170;DHT22;29836;52.286;9.576;2023-07-20T08:25:45;17.50;99.90
44170;DHT22;29836;52.286;9.576;2023-07-20T08:28:11;17.50;99.90
44170;DHT22;29836;52.286;9.576;2023-07-20T08:30:48;17.30;99.90
44170;DHT22;29836;52.286;9.576;2023-07-20T08:33:14;17.00;99.90
44170;DHT22;29836;52.286;9.576;2023-07-20T08:35:40;16.90;99.90
44170;DHT22;29836;52.286;9.576;2023-07-20T08:38:06;16.80;99.90
44170;DHT22;29836;52.286;9.576;2023-07-20T08:40:34;16.80;99.90
44170;DHT22;29836;52.286;9.576;2023-07-20T08:43:04;16.80;99.90
44170;DHT22;29836;52.286;9.576;2023-07-20T08:45:30;16.90;99.90
44170;DHT22;29836;52.286;9.576;2023-07-20T08:48:01;17.10;99.90
44170;DHT22;29836;52.286;9.576;2023-07-20T08:50:30;17.20;99.90
44170;DHT22;29836;52.286;9.576;2023-07-20T08:52:57;17.60;99.90
44170;DHT22;29836;52.286;9.576;2023-07-20T08:55:27;17.80;99.90
44170;DHT22;29836;52.286;9.576;2023-07-20T08:57:55;18.00;99.90
44170;DHT22;29836;52.286;9.576;2023-07-20T09:00:21;18.00;99.90
44170;DHT22;29836;52.286;9.576;2023-07-20T09:02:49;17.90;99.90
44170;DHT22;29836;52.286;9.576;2023-07-20T09:05:19;18.00;99.90
44170;DHT22;29836;52.286;9.576;2023-07-20T09:07:47;18.10;99.90
44170;DHT22;29836;52.286;9.576;2023-07-20T09:10:13;18.20;99.90
44170;DHT22;29836;52.286;9.576;2023-07-20T09:12:48;18.30;99.90
44170;DHT22;29836;52.286;9.576;2023-07-20T09:15:14;18.40;99.90
44170;DHT22;29836;52.286;9.576;2023-07-20T09:17:39;18.60;99.90
44170;DHT22;29836;52.286;9.576;2023-07-20T09:20:05;18.90;99.90
44170;DHT22;29836;52.286;9.576;2023-07-20T09:22:34;19.40;99.90
44170;DHT22;29836;52.286;9.576;2023-07-20T09:25:00;19.70;98.50
44170;DHT22;29836;52.286;9.576;2023-07-20T09:27:38;19.30;96.40
44170;DHT22;29836;52.286;9.576;2023-07-20T09:30:05;19.20;97.90
44170;DHT22;29836;52.286;9.576;2023-07-20T09:32:44;20.00;95.20
44170;DHT22;29836;52.286;9.576;2023-07-20T09:35:29;20.90;89.10
44170;DHT22;29836;52.286;9.576;2023-07-20T09:37:58;21.70;83.30
44170;DHT22;29836;52.286;9.576;2023-07-20T09:40:25;21.60;86.90
44170;DHT22;29836;52.286;9.576;2023-07-20T09:42:52;22.10;85.70
44170;DHT22;29836;52.286;9.576;2023-07-20T09:45:18;22.70;79.90
44170;DHT22;29836;52.286;9.576;2023-07-20T09:47:44;23.00;80.80
44170;DHT22;29836;52.286;9.576;2023-07-20T09:50:10;23.30;74.60
44170;DHT22;29836;52.286;9.576;2023-07-20T09:52:38;23.60;72.50
44170;DHT22;29836;52.286;9.576;2023-07-20T09:55:09;24.20;72.90
44170;DHT22;29836;52.286;9.576;2023-07-20T09:57:35;24.20;71.90
44170;DHT22;29836;52.286;9.576;2023-07-20T10:00:03;23.70;72.50
44170;DHT22;29836;52.286;9.576;2023-07-20T10:02:44;23.70;72.50
44170;DHT22;29836;52.286;9.576;2023-07-20T10:05:14;24.00;72.70
44170;DHT22;29836;52.286;9.576;2023-07-20T10:07:47;24.60;70.10
44170;DHT22;29836;52.286;9.576;2023-07-20T10:10:18;24.70;68.70
44170;DHT22;29836;52.286;9.576;2023-07-20T10:12:48;24.30;68.80
44170;DHT22;29836;52.286;9.576;2023-07-20T10:15:36;24.30;69.20
44170;DHT22;29836;52.286;9.576;2023-07-20T10:18:50;25.00;67.30
44170;DHT22;29836;52.286;9.576;2023-07-20T10:21:17;25.40;68.20
44170;DHT22;29836;52.286;9.576;2023-07-20T10:23:45;25.60;67.30
44170;DHT22;29836;52.286;9.576;2023-07-20T10:26:11;25.60;66.20
44170;DHT22;29836;52.286;9.576;2023-07-20T10:28:38;25.90;64.40
44170;DHT22;29836;52.286;9.576;2023-07-20T10:31:03;26.40;66.10
44170;DHT22;29836;52.286;9.576;2023-07-20T10:33:29;27.00;64.80
44170;DHT22;29836;52.286;9.576;2023-07-20T10:35:57;27.20;63.10
44170;DHT22;29836;52.286;9.576;2023-07-20T10:41:27;26.10;61.70
44170;DHT22;29836;52.286;9.576;2023-07-20T10:44:02;24.80;65.50
44170;DHT22;29836;52.286;9.576;2023-07-20T10:49:09;24.20;65.50
44170;DHT22;29836;52.286;9.576;2023-07-20T10:51:42;23.80;66.50
44170;DHT22;29836;52.286;9.576;2023-07-20T10:54:53;23.50;67.70
44170;DHT22;29836;52.286;9.576;2023-07-20T10:57:28;23.50;72.00
44170;DHT22;29836;52.286;9.576;2023-07-20T11:00:11;23.70;67.40
44170;DHT22;29836;52.286;9.576;2023-07-20T11:02:47;23.30;65.20
44170;DHT22;29836;52.286;9.576;2023-07-20T11:05:36;22.50;68.80
44170;DHT22;29836;52.286;9.576;2023-07-20T11:08:09;21.80;71.70
44170;DHT22;29836;52.286;9.576;2023-07-20T11:10:35;21.40;72.80
44170;DHT22;29836;52.286;9.576;2023-07-20T11:16:01;22.10;76.40
44170;DHT22;29836;52.286;9.576;2023-07-20T11:18:29;23.00;71.70
44170;DHT22;29836;52.286;9.576;2023-07-20T11:20:54;23.30;70.80
44170;DHT22;29836;52.286;9.576;2023-07-20T11:23:20;23.20;68.50
44170;DHT22;29836;52.286;9.576;2023-07-20T11:25:46;23.00;69.80
44170;DHT22;29836;52.286;9.576;2023-07-20T11:28:12;22.70;70.80
44170;DHT22;29836;52.286;9.576;2023-07-20T11:30:38;22.20;72.40
44170;DHT22;29836;52.286;9.576;2023-07-20T11:33:05;21.80;72.00
44170;DHT22;29836;52.286;9.576;2023-07-20T11:35:34;21.40;72.80
44170;DHT22;29836;52.286;9.576;2023-07-20T11:38:00;20.90;75.20
44170;DHT22;29836;52.286;9.576;2023-07-20T11:40:26;20.70;77.30
44170;DHT22;29836;52.286;9.576;2023-07-20T11:42:51;20.50;76.70
44170;DHT22;29836;52.286;9.576;2023-07-20T11:45:19;20.40;78.00
44170;DHT22;29836;52.286;9.576;2023-07-20T11:47:45;20.30;78.30
44170;DHT22;29836;52.286;9.576;2023-07-20T11:50:11;20.70;79.20
44170;DHT22;29836;52.286;9.576;2023-07-20T11:52:40;21.80;77.30
44170;DHT22;29836;52.286;9.576;2023-07-20T11:55:08;22.80;74.80
44170;DHT22;29836;52.286;9.576;2023-07-20T11:57:34;23.50;70.80
44170;DHT22;29836;52.286;9.576;2023-07-20T12:00:03;23.20;71.10
44170;DHT22;29836;52.286;9.576;2023-07-20T12:02:34;22.80;70.40
44170;DHT22;29836;52.286;9.576;2023-07-20T12:04:59;22.30;71.20
44170;DHT22;29836;52.286;9.576;2023-07-20T12:07:27;22.10;70.40
44170;DHT22;29836;52.286;9.576;2023-07-20T12:10:04;22.20;72.40
44170;DHT22;29836;52.286;9.576;2023-07-20T12:12:32;22.10;72.20
44170;DHT22;29836;52.286;9.576;2023-07-20T12:15:15;22.10;73.00
44170;DHT22;29836;52.286;9.576;2023-07-20T12:17:45;22.20;71.90
44170;DHT22;29836;52.286;9.576;2023-07-20T12:20:11;21.70;71.80
44170;DHT22;29836;52.286;9.576;2023-07-20T12:22:41;21.60;75.90
44170;DHT22;29836;52.286;9.576;2023-07-20T12:25:07;21.50;75.50
44170;DHT22;29836;52.286;9.576;2023-07-20T12:27:36;21.30;72.80
44170;DHT22;29836;52.286;9.576;2023-07-20T12:30:02;21.00;73.10
44170;DHT22;29836;52.286;9.576;2023-07-20T12:32:29;20.90;75.00
44170;DHT22;29836;52.286;9.576;2023-07-20T12:34:55;20.70;76.00
44170;DHT22;29836;52.286;9.576;2023-07-20T12:37:20;20.70;77.80
44170;DHT22;29836;52.286;9.576;2023-07-20T12:39:46;21.10;76.30
44170;DHT22;29836;52.286;9.576;2023-07-20T12:42:12;21.00;76.00
44170;DHT22;29836;52.286;9.576;2023-07-20T12:44:40;20.80;72.50
44170;DHT22;29836;52.286;9.576;2023-07-20T12:47:05;20.80;74.30
44170;DHT22;29836;52.286;9.576;2023-07-20T12:49:31;20.80;74.30
44170;DHT22;29836;52.286;9.576;2023-07-20T12:51:56;20.70;75.20
44170;DHT22;29836;52.286;9.576;2023-07-20T12:54:22;20.60;76.80
44170;DHT22;29836;52.286;9.576;2023-07-20T12:56:47;20.60;76.50
44170;DHT22;29836;52.286;9.576;2023-07-20T12:59:13;20.60;76.10
44170;DHT22;29836;52.286;9.576;2023-07-20T13:01:38;20.60;75.50
44170;DHT22;29836;52.286;9.576;2023-07-20T13:04:06;20.50;77.60
44170;DHT22;29836;52.286;9.576;2023-07-20T13:06:34;20.60;77.30
44170;DHT22;29836;52.286;9.576;2023-07-20T13:09:00;20.60;75.90
44170;DHT22;29836;52.286;9.576;2023-07-20T13:11:26;20.60;75.70
44170;DHT22;29836;52.286;9.576;2023-07-20T13:13:51;21.10;76.20
44170;DHT22;29836;52.286;9.576;2023-07-20T13:16:17;21.70;75.90
44170;DHT22;29836;52.286;9.576;2023-07-20T13:18:43;22.00;72.00
44170;DHT22;29836;52.286;9.576;2023-07-20T13:21:08;22.40;71.30
44170;DHT22;29836;52.286;9.576;2023-07-20T13:23:39;22.80;72.70
44170;DHT22;29836;52.286;9.576;2023-07-20T13:26:05;23.10;72.10
44170;DHT22;29836;52.286;9.576;2023-07-20T13:28:30;23.10;71.40
44170;DHT22;29836;52.286;9.576;2023-07-20T13:30:56;22.70;68.80
44170;DHT22;29836;52.286;9.576;2023-07-20T13:33:21;22.40;68.50
44170;DHT22;29836;52.286;9.576;2023-07-20T13:35:47;22.00;71.00
44170;DHT22;29836;52.286;9.576;2023-07-20T13:38:13;21.70;71.90
44170;DHT22;29836;52.286;9.576;2023-07-20T13:40:38;21.30;71.40
44170;DHT22;29836;52.286;9.576;2023-07-20T13:43:04;21.00;73.40
44170;DHT22;29836;52.286;9.576;2023-07-20T13:45:29;20.80;71.80
44170;DHT22;29836;52.286;9.576;2023-07-20T13:47:55;20.50;72.30
44170;DHT22;29836;52.286;9.576;2023-07-20T13:50:20;20.30;73.20
44170;DHT22;29836;52.286;9.576;2023-07-20T13:52:46;20.10;74.10
44170;DHT22;29836;52.286;9.576;2023-07-20T13:55:12;19.90;74.80
44170;DHT22;29836;52.286;9.576;2023-07-20T13:57:37;19.90;75.40
44170;DHT22;29836;52.286;9.576;2023-07-20T14:00:04;20.20;76.00
44170;DHT22;29836;52.286;9.576;2023-07-20T14:02:29;20.70;77.20
44170;DHT22;29836;52.286;9.576;2023-07-20T14:04:55;21.10;73.70
44170;DHT22;29836;52.286;9.576;2023-07-20T14:07:21;21.10;71.00
44170;DHT22;29836;52.286;9.576;2023-07-20T14:09:47;21.40;72.30
44170;DHT22;29836;52.286;9.576;2023-07-20T14:12:12;21.80;73.40
44170;DHT22;29836;52.286;9.576;2023-07-20T14:14:40;22.10;71.20
44170;DHT22;29836;52.286;9.576;2023-07-20T14:17:06;22.40;70.20
44170;DHT22;29836;52.286;9.576;2023-07-20T14:19:32;22.70;71.30
44170;DHT22;29836;52.286;9.576;2023-07-20T14:21:58;22.60;68.90
44170;DHT22;29836;52.286;9.576;2023-07-20T14:24:25;22.40;68.90
44170;DHT22;29836;52.286;9.576;2023-07-20T14:26:50;22.10;69.90
44170;DHT22;29836;52.286;9.576;2023-07-20T14:29:16;21.90;69.90
44170;DHT22;29836;52.286;9.576;2023-07-20T14:31:43;21.80;71.30
44170;DHT22;29836;52.286;9.576;2023-07-20T14:34:09;21.70;73.00
44170;DHT22;29836;52.286;9.576;2023-07-20T14:36:35;21.60;74.50
44170;DHT22;29836;52.286;9.576;2023-07-20T14:39:00;21.50;76.40
44170;DHT22;29836;52.286;9.576;2023-07-20T14:41:26;21.50;76.10
44170;DHT22;29836;52.286;9.576;2023-07-20T14:43:51;21.80;75.00
44170;DHT22;29836;52.286;9.576;2023-07-20T14:46:17;22.20;72.80
44170;DHT22;29836;52.286;9.576;2023-07-20T14:48:43;22.50;70.90
44170;DHT22;29836;52.286;9.576;2023-07-20T14:51:08;22.80;70.40
44170;DHT22;29836;52.286;9.576;2023-07-20T14:53:33;23.00;67.80
44170;DHT22;29836;52.286;9.576;2023-07-20T14:56:00;23.20;69.30
44170;DHT22;29836;52.286;9.576;2023-07-20T14:58:26;23.30;69.10
44170;DHT22;29836;52.286;9.576;2023-07-20T15:00:52;23.50;69.90
44170;DHT22;29836;52.286;9.576;2023-07-20T15:03:17;23.30;67.90
44170;DHT22;29836;52.286;9.576;2023-07-20T15:05:43;23.50;67.90
44170;DHT22;29836;52.286;9.576;2023-07-20T15:08:08;23.70;67.20
44170;DHT22;29836;52.286;9.576;2023-07-20T15:10:34;23.60;66.50
44170;DHT22;29836;52.286;9.576;2023-07-20T15:13:00;23.70;66.70
44170;DHT22;29836;52.286;9.576;2023-07-20T15:15:26;23.80;65.90
44170;DHT22;29836;52.286;9.576;2023-07-20T15:20:19;23.20;65.80
44170;DHT22;29836;52.286;9.576;2023-07-20T15:22:45;22.90;68.10
44170;DHT22;29836;52.286;9.576;2023-07-20T15:25:11;22.50;66.70
44170;DHT22;29836;52.286;9.576;2023-07-20T15:27:37;22.30;68.60
44170;DHT22;29836;52.286;9.576;2023-07-20T15:30:03;22.10;70.10
44170;DHT22;29836;52.286;9.576;2023-07-20T15:32:29;21.90;68.40
44170;DHT22;29836;52.286;9.576;2023-07-20T15:34:54;21.70;68.50
44170;DHT22;29836;52.286;9.576;2023-07-20T15:37:20;21.50;70.40
44170;DHT22;29836;52.286;9.576;2023-07-20T15:39:49;21.30;72.20
44170;DHT22;29836;52.286;9.576;2023-07-20T15:42:14;21.10;73.00
44170;DHT22;29836;52.286;9.576;2023-07-20T15:44:40;20.80;74.00
44170;DHT22;29836;52.286;9.576;2023-07-20T15:47:06;20.70;75.90